Time;durP1;ratioP1;P1;durP2;ratioP2;P2;SDS_P1;SDS_P2;PMS_P1;PMS_P2;Temp;Humidity;BMP_temperature;BMP_pressure;BME280_temperature;BME280_humidity;BME280_pressure;Samples;Min_cycle;Max_cycle;Signal;HPM_P1;HPM_P2
2021/01/09 00:01:50;;;;;;;2.33;0.90;;;2.10;99.90;;;;;;5034529;28;20465;-65
2021/01/09 00:04:22;;;;;;;3.75;0.88;;;2.10;99.90;;;;;;5062250;28;20089;-64
2021/01/09 00:06:54;;;;;;;1.85;0.90;;;2.10;99.90;;;;;;5072479;28;20044;-65
2021/01/09 00:09:20;;;;;;;3.58;0.93;;;2.10;99.90;;;;;;5053863;28;20045;-65
2021/01/09 00:11:51;;;;;;;2.85;0.90;;;2.20;99.90;;;;;;5068895;28;20036;-64
2021/01/09 00:14:25;;;;;;;1.33;0.85;;;2.20;99.90;;;;;;5051093;28;20045;-65
2021/01/09 00:17:08;;;;;;;;;;;2.20;99.90;;;;;;5059274;28;20115;-65
2021/01/09 00:19:42;;;;;;;2.63;0.85;;;2.20;99.90;;;;;;5044199;28;19978;-65
2021/01/09 00:26:37;;;;;;;3.08;1.02;;;2.30;99.90;;;;;;5053410;28;20035;-65
2021/01/09 00:29:09;;;;;;;2.55;0.93;;;2.40;99.90;;;;;;5065396;28;20056;-65
2021/01/09 00:31:41;;;;;;;2.30;1.05;;;2.40;99.90;;;;;;5032560;28;20465;-65
2021/01/09 00:34:09;;;;;;;3.63;1.20;;;2.40;99.90;;;;;;5058553;28;20424;-65
2021/01/09 00:36:37;;;;;;;2.22;1.00;;;2.40;99.90;;;;;;5054183;28;20384;-65
2021/01/09 00:39:40;;;;;;;3.55;1.55;;;2.40;99.90;;;;;;5057785;28;20512;-65
2021/01/09 00:42:07;;;;;;;2.85;1.50;;;2.40;99.90;;;;;;5059003;28;20041;-65
2021/01/09 00:44:38;;;;;;;2.58;1.00;;;2.40;99.90;;;;;;5040357;28;20049;-65
2021/01/09 00:47:23;;;;;;;2.67;1.05;;;2.40;99.90;;;;;;5056343;28;20399;-65
2021/01/09 00:49:51;;;;;;;4.97;1.40;;;2.40;99.90;;;;;;5073302;28;20101;-65
2021/01/09 00:52:16;;;;;;;4.97;2.38;;;2.30;99.90;;;;;;5069164;28;20501;-65
2021/01/09 00:54:43;;;;;;;10.52;5.22;;;2.30;99.90;;;;;;5073637;28;20119;-65
2021/01/09 01:01:40;;;;;;;10.27;4.97;;;2.30;99.90;;;;;;5058417;28;20399;-65
2021/01/09 01:04:12;;;;;;;12.43;5.70;;;2.20;99.90;;;;;;5071959;28;20037;-65
2021/01/09 01:06:40;;;;;;;10.93;5.78;;;2.10;99.90;;;;;;5057461;28;20032;-65
2021/01/09 01:09:12;;;;;;;9.95;4.65;;;2.20;99.90;;;;;;5059868;28;20098;-65
2021/01/09 01:19:17;;;;;;;12.88;3.60;;;1.90;99.90;;;;;;5062845;28;20075;-65
2021/01/09 01:21:46;;;;;;;5.68;2.88;;;1.80;99.90;;;;;;5065056;28;20405;-65
2021/01/09 01:24:14;;;;;;;5.63;2.55;;;1.80;99.90;;;;;;5059151;28;20056;-65
2021/01/09 01:26:52;;;;;;;6.78;2.60;;;1.70;99.90;;;;;;5037248;28;20037;-65
2021/01/09 01:29:19;;;;;;;6.25;2.15;;;1.70;99.90;;;;;;5037426;28;20095;-65
2021/01/09 01:31:48;;;;;;;3.97;2.10;;;1.70;99.90;;;;;;5052430;28;20068;-65
2021/01/09 01:34:22;;;;;;;3.88;1.77;;;1.70;99.90;;;;;;5037142;28;20046;-65
2021/01/09 01:36:51;;;;;;;5.18;2.00;;;1.70;99.90;;;;;;5067129;28;20072;-65
2021/01/09 01:39:18;;;;;;;3.67;1.63;;;1.70;99.90;;;;;;5073038;28;20075;-65
2021/01/09 01:41:53;;;;;;;4.22;2.15;;;1.70;99.90;;;;;;5076887;28;20041;-65
2021/01/09 01:44:22;;;;;;;3.60;1.80;;;1.60;99.90;;;;;;5059196;28;20060;-65
2021/01/09 01:54:27;;;;;;;5.60;1.90;;;1.50;99.90;;;;;;5034837;28;20145;-64
2021/01/09 01:56:55;;;;;;;4.68;1.92;;;1.50;99.90;;;;;;5036745;28;20111;-64
2021/01/09 01:59:48;;;;;;;4.35;1.83;;;1.50;99.90;;;;;;5056648;28;20041;-65
2021/01/09 02:02:23;;;;;;;3.25;1.60;;;1.40;99.90;;;;;;5059552;28;20415;-65
2021/01/09 02:05:00;;;;;;;5.28;2.30;;;1.40;99.90;;;;;;5076742;28;20466;-65
2021/01/09 02:11:56;;;;;;;3.95;1.70;;;1.40;99.90;;;;;;5056982;28;20527;-64
2021/01/09 02:14:43;;;;;;;3.78;1.67;;;1.40;99.90;;;;;;5074778;28;20040;-64
2021/01/09 02:17:28;;;;;;;3.47;1.50;;;1.40;99.90;;;;;;5059582;28;20052;-65
2021/01/09 02:20:02;;;;;;;2.80;1.17;;;1.40;99.90;;;;;;5044402;28;20051;-64
2021/01/09 02:26:54;;;;;;;2.05;0.90;;;1.40;99.90;;;;;;5066012;28;20035;-65
2021/01/09 02:29:31;;;;;;;1.52;0.80;;;1.40;99.90;;;;;;5066874;28;20045;-65
2021/01/09 02:32:26;;;;;;;2.88;0.98;;;1.40;99.90;;;;;;5075632;28;20048;-64
2021/01/09 02:39:18;;;;;;;3.03;1.15;;;1.40;99.90;;;;;;5040772;28;20531;-64
2021/01/09 02:45:28;;;;;;;1.77;0.90;;;1.40;99.90;;;;;;5067511;28;20048;-65
2021/01/09 02:48:02;;;;;;;3.35;1.20;;;1.40;99.90;;;;;;5050170;28;20090;-65
2021/01/09 02:50:34;;;;;;;3.03;1.10;;;1.40;99.90;;;;;;5075235;28;20041;-65
2021/01/09 02:53:00;;;;;;;1.88;1.00;;;1.40;99.90;;;;;;5064900;28;20067;-66
2021/01/09 02:55:31;;;;;;;2.38;1.10;;;1.40;99.90;;;;;;5067347;28;20045;-65
2021/01/09 02:57:58;;;;;;;5.07;1.40;;;1.40;99.90;;;;;;5070234;28;20384;-65
2021/01/09 03:00:33;;;;;;;2.13;1.15;;;1.50;99.90;;;;;;5074055;28;20048;-65
2021/01/09 03:03:01;;;;;;;3.10;1.30;;;1.40;99.90;;;;;;5060035;28;20485;-65
2021/01/09 03:05:32;;;;;;;2.97;1.38;;;1.50;99.90;;;;;;5060918;28;20073;-65
2021/01/09 03:08:07;;;;;;;3.33;1.60;;;1.50;99.90;;;;;;5073034;28;20048;-65
2021/01/09 03:10:34;;;;;;;6.10;1.40;;;1.50;99.90;;;;;;5066568;28;20040;-65
2021/01/09 03:13:06;;;;;;;4.45;1.75;;;1.50;99.90;;;;;;5058751;28;20045;-65
2021/01/09 03:15:38;;;;;;;2.05;1.08;;;1.50;99.90;;;;;;5052910;28;20056;-65
2021/01/09 03:18:05;;;;;;;2.42;1.13;;;1.60;99.90;;;;;;5066622;28;20484;-65
2021/01/09 03:20:37;;;;;;;2.22;1.23;;;1.60;99.90;;;;;;5060426;28;20044;-65
2021/01/09 03:23:08;;;;;;;2.75;1.17;;;1.60;99.90;;;;;;5063760;28;20050;-65
2021/01/09 03:25:36;;;;;;;2.72;1.40;;;1.70;99.90;;;;;;5051855;28;20049;-65
2021/01/09 03:28:09;;;;;;;3.03;1.17;;;1.60;99.90;;;;;;5054920;28;20472;-65
2021/01/09 03:30:37;;;;;;;2.65;1.23;;;1.60;99.90;;;;;;5060939;28;20075;-65
2021/01/09 03:33:09;;;;;;;2.63;1.05;;;1.60;99.90;;;;;;5065658;28;20047;-65
2021/01/09 03:35:37;;;;;;;2.65;1.30;;;1.60;99.90;;;;;;5072994;28;20045;-65
2021/01/09 03:38:15;;;;;;;2.03;1.10;;;1.60;99.90;;;;;;5059632;28;20046;-65
2021/01/09 03:41:11;;;;;;;2.42;1.25;;;1.60;99.90;;;;;;5060885;28;20041;-65
2021/01/09 03:43:52;;;;;;;2.50;1.17;;;1.60;99.90;;;;;;5054375;28;20041;-65
2021/01/09 03:46:19;;;;;;;2.97;1.17;;;1.60;99.90;;;;;;5045202;28;20052;-65
2021/01/09 03:53:16;;;;;;;3.58;0.80;;;1.60;99.90;;;;;;5069002;28;20072;-65
2021/01/09 03:56:12;;;;;;;2.47;1.23;;;1.60;99.90;;;;;;5035678;28;20097;-65
2021/01/09 03:58:44;;;;;;;2.25;1.02;;;1.60;99.90;;;;;;5041452;28;20055;-65
2021/01/09 04:01:22;;;;;;;2.92;1.25;;;1.60;99.90;;;;;;5041495;28;20044;-65
2021/01/09 04:08:06;;;;;;;1.90;1.02;;;1.60;99.90;;;;;;5042869;28;20405;-65
2021/01/09 04:10:41;;;;;;;3.60;1.08;;;1.60;99.90;;;;;;5053095;28;20068;-65
2021/01/09 04:13:07;;;;;;;2.90;1.20;;;1.70;99.90;;;;;;5070321;28;20036;-65
2021/01/09 04:23:07;;;;;;;2.40;1.10;;;1.70;99.90;;;;;;5071504;28;20109;-65
2021/01/09 04:25:40;;;;;;;2.95;1.33;;;1.70;99.90;;;;;;5034327;28;20038;-65
2021/01/09 04:28:07;;;;;;;2.40;1.25;;;1.70;99.90;;;;;;5072432;28;20037;-65
2021/01/09 04:30:45;;;;;;;3.50;1.58;;;1.70;99.90;;;;;;5033782;28;20099;-65
2021/01/09 04:33:22;;;;;;;3.10;1.40;;;1.70;99.90;;;;;;5068820;28;20040;-65
2021/01/09 04:36:18;;;;;;;3.33;1.58;;;1.80;99.90;;;;;;5062807;28;20124;-65
2021/01/09 04:38:50;;;;;;;2.88;1.38;;;1.70;99.90;;;;;;5039103;28;20046;-65
2021/01/09 04:41:23;;;;;;;2.10;1.05;;;1.80;99.90;;;;;;5057272;28;20037;-64
2021/01/09 04:44:06;;;;;;;2.72;1.33;;;1.80;99.90;;;;;;5040308;28;20166;-65
2021/01/09 04:50:42;;;;;;;2.78;1.25;;;1.80;99.90;;;;;;5035862;28;20114;-65
2021/01/09 04:53:08;;;;;;;2.85;1.30;;;1.90;99.90;;;;;;5072408;28;20047;-64
2021/01/09 04:55:44;;;;;;;4.63;1.55;;;1.90;99.90;;;;;;5059943;28;20061;-64
2021/01/09 04:58:11;;;;;;;3.70;1.30;;;1.90;99.90;;;;;;5067272;28;20036;-64
2021/01/09 05:08:06;;;;;;;2.03;1.08;;;2.00;99.90;;;;;;5048830;28;20091;-64
2021/01/09 05:10:37;;;;;;;2.70;1.33;;;2.00;99.90;;;;;;5043942;28;20036;-65
2021/01/09 05:13:09;;;;;;;3.35;1.75;;;2.00;99.90;;;;;;5065023;28;20110;-65
2021/01/09 05:16:13;;;;;;;3.40;1.38;;;2.00;99.90;;;;;;5061279;28;20097;-65
2021/01/09 05:18:45;;;;;;;3.58;1.80;;;2.00;99.90;;;;;;5068342;28;20408;-64
2021/01/09 05:21:14;;;;;;;2.85;1.40;;;2.10;99.90;;;;;;5057479;28;20120;-65
2021/01/09 05:28:06;;;;;;;2.70;1.27;;;2.10;99.90;;;;;;5058182;28;20530;-64
2021/01/09 05:30:41;;;;;;;2.38;1.15;;;2.10;99.90;;;;;;5052280;28;20483;-65
2021/01/09 05:33:08;;;;;;;3.60;1.40;;;2.10;99.90;;;;;;5049129;28;20041;-64
2021/01/09 05:35:37;;;;;;;1.88;1.15;;;2.10;99.90;;;;;;5073573;28;20102;-65
2021/01/09 05:38:38;;;;;;;3.45;1.02;;;2.10;99.90;;;;;;5073604;28;20043;-65
2021/01/09 05:41:17;;;;;;;2.20;0.88;;;2.10;99.90;;;;;;5067723;28;20069;-65
2021/01/09 05:43:58;;;;;;;2.92;1.15;;;2.20;99.90;;;;;;5037788;28;20037;-65
2021/01/09 05:50:41;;;;;;;1.98;0.98;;;2.20;99.90;;;;;;5068391;28;20059;-65
2021/01/09 05:53:09;;;;;;;1.83;1.02;;;2.20;99.90;;;;;;5070056;28;20476;-65
2021/01/09 05:55:40;;;;;;;1.92;1.02;;;2.30;99.90;;;;;;5072684;28;20458;-65
2021/01/09 05:58:12;;;;;;;3.15;1.33;;;2.30;99.90;;;;;;5072873;28;20037;-65
2021/01/09 06:00:42;;;;;;;2.90;1.20;;;2.30;99.90;;;;;;5072918;28;20047;-65
2021/01/09 06:03:43;;;;;;;3.53;1.23;;;2.30;99.90;;;;;;5053973;28;20052;-65
2021/01/09 06:10:03;;;;;;;1.35;0.73;;;2.40;99.90;;;;;;5044638;28;20035;-65
2021/01/09 06:13:09;;;;;;;2.80;0.95;;;2.40;99.90;;;;;;5064654;28;20041;-65
2021/01/09 06:15:40;;;;;;;1.90;0.75;;;2.40;99.90;;;;;;5062493;28;20438;-65
2021/01/09 06:18:09;;;;;;;1.73;0.82;;;2.40;99.90;;;;;;5063740;28;20045;-65
2021/01/09 06:20:42;;;;;;;2.72;0.93;;;2.30;99.90;;;;;;5036787;28;20041;-65
2021/01/09 06:23:12;;;;;;;3.40;1.13;;;2.30;99.90;;;;;;5036282;28;20548;-65
2021/01/09 06:25:41;;;;;;;1.58;0.75;;;2.30;99.90;;;;;;5061390;28;20044;-65
2021/01/09 06:28:16;;;;;;;1.83;1.00;;;2.30;99.90;;;;;;5076055;28;20444;-65
2021/01/09 06:38:13;;;;;;;2.10;0.63;;;2.10;99.90;;;;;;5075505;28;20098;-65
2021/01/09 06:48:25;;;;;;;1.60;0.68;;;2.00;99.90;;;;;;5038226;28;20055;-65
2021/01/09 06:54:15;;;;;;;1.80;0.63;;;2.10;99.90;;;;;;5050476;28;20061;-65
2021/01/09 06:57:16;;;;;;;0.85;0.50;;;2.10;99.90;;;;;;5070553;28;20056;-65
2021/01/09 07:03:42;;;;;;;1.73;0.60;;;2.10;99.90;;;;;;5056897;28;20127;-65
2021/01/09 07:06:14;;;;;;;1.60;0.68;;;2.10;99.90;;;;;;5056659;28;20041;-65
2021/01/09 07:09:18;;;;;;;2.47;0.70;;;2.20;99.90;;;;;;5044660;28;20128;-65
2021/01/09 07:15:44;;;;;;;1.35;0.65;;;2.20;99.90;;;;;;5067684;28;20214;-65
2021/01/09 07:18:32;;;;;;;2.17;0.85;;;2.20;99.90;;;;;;5074976;28;20538;-64
2021/01/09 07:28:20;;;;;;;0.98;0.57;;;2.30;99.90;;;;;;5054872;28;20114;-65
2021/01/09 07:31:14;;;;;;;1.27;0.60;;;2.30;99.90;;;;;;5061547;28;20048;-65
2021/01/09 07:33:44;;;;;;;1.20;0.63;;;2.30;99.90;;;;;;5054809;28;20071;-65
2021/01/09 07:36:16;;;;;;;1.85;0.60;;;2.30;99.90;;;;;;5055028;28;20045;-65
2021/01/09 07:39:01;;;;;;;0.85;0.60;;;2.20;99.90;;;;;;5059545;28;20480;-65
2021/01/09 07:45:38;;;;;;;1.02;0.63;;;2.20;99.90;;;;;;5063973;28;20160;-65
2021/01/09 07:48:20;;;;;;;1.70;0.50;;;2.20;99.90;;;;;;5059062;28;20053;-65
2021/01/09 07:50:47;;;;;;;1.15;0.50;;;2.10;99.90;;;;;;5034765;28;20440;-65
2021/01/09 07:53:26;;;;;;;2.28;0.77;;;2.10;99.90;;;;;;5059221;28;20037;-65
2021/01/09 07:55:58;;;;;;;1.60;0.73;;;2.00;99.90;;;;;;5063760;28;20053;-65
2021/01/09 08:05:44;;;;;;;0.68;0.40;;;1.90;99.90;;;;;;5074693;28;20051;-65
2021/01/09 08:08:16;;;;;;;2.03;0.65;;;1.90;99.90;;;;;;5033984;28;20517;-65
2021/01/09 08:10:43;;;;;;;2.40;0.80;;;1.90;99.90;;;;;;5064998;28;20392;-65
2021/01/09 08:13:11;;;;;;;2.33;0.60;;;2.00;99.90;;;;;;5061237;28;20044;-65
2021/01/09 08:15:38;;;;;;;1.08;0.55;;;2.00;99.90;;;;;;5062011;28;20040;-65
2021/01/09 08:18:26;;;;;;;1.27;0.57;;;2.00;99.90;;;;;;5059738;28;20481;-65
2021/01/09 08:21:10;;;;;;;1.38;0.60;;;2.10;99.90;;;;;;5062124;28;20557;-65
2021/01/09 08:23:52;;;;;;;;;;;2.10;99.90;;;;;;5054107;28;20067;-65
2021/01/09 08:30:39;;;;;;;2.47;0.52;;;2.20;99.90;;;;;;5053534;28;20082;-65
2021/01/09 08:33:16;;;;;;;1.35;0.52;;;2.20;99.90;;;;;;5053131;28;20048;-65
2021/01/09 08:36:19;;;;;;;2.10;0.60;;;2.30;99.90;;;;;;5065299;28;20048;-65
2021/01/09 08:38:51;;;;;;;1.70;0.80;;;2.30;99.90;;;;;;5053779;28;20047;-65
2021/01/09 08:41:18;;;;;;;3.42;0.95;;;2.30;99.90;;;;;;5069837;28;20500;-65
2021/01/09 08:43:51;;;;;;;1.70;0.90;;;2.40;99.90;;;;;;5043818;28;20119;-65
2021/01/09 08:50:42;;;;;;;2.15;0.95;;;2.50;99.90;;;;;;5053222;28;20074;-65
2021/01/09 08:53:15;;;;;;;2.08;0.68;;;2.60;99.90;;;;;;5033385;28;20069;-65
2021/01/09 08:55:45;;;;;;;1.17;0.55;;;2.60;99.90;;;;;;5033713;28;20116;-65
2021/01/09 08:58:41;;;;;;;1.02;0.57;;;2.70;99.90;;;;;;5064899;28;20033;-65
2021/01/09 09:01:26;;;;;;;1.40;0.60;;;2.70;99.90;;;;;;5072179;28;20399;-65
2021/01/09 09:08:09;;;;;;;2.17;0.40;;;2.80;99.90;;;;;;5073046;28;19962;-65
2021/01/09 09:18:12;;;;;;;1.10;0.52;;;2.80;99.90;;;;;;5034049;28;20036;-65
2021/01/09 09:20:45;;;;;;;0.75;0.50;;;2.80;99.90;;;;;;5051077;28;20045;-65
2021/01/09 09:23:19;;;;;;;1.20;0.63;;;2.90;99.90;;;;;;5057146;28;20453;-65
2021/01/09 09:29:13;;;;;;;2.13;0.63;;;2.90;99.90;;;;;;5041118;28;20489;-65
2021/01/09 09:35:39;;;;;;;1.20;0.60;;;3.00;99.90;;;;;;5034871;28;20037;-65
2021/01/09 09:38:26;;;;;;;1.48;0.82;;;3.00;99.90;;;;;;5064931;28;20116;-65
2021/01/09 09:41:05;;;;;;;1.40;0.70;;;3.10;99.90;;;;;;5034970;28;20060;-65
2021/01/09 09:43:59;;;;;;;1.73;0.93;;;3.10;99.90;;;;;;5056980;28;20045;-65
2021/01/09 09:46:53;;;;;;;2.92;1.00;;;3.10;99.90;;;;;;5071112;28;20470;-65
2021/01/09 09:53:20;;;;;;;1.55;0.85;;;3.10;99.90;;;;;;5066365;28;20464;-65
2021/01/09 09:56:16;;;;;;;2.05;0.68;;;3.20;99.90;;;;;;5060991;28;20084;-65
2021/01/09 10:02:59;;;;;;;1.35;0.50;;;3.20;99.90;;;;;;5067100;28;20120;-65
2021/01/09 10:05:28;;;;;;;1.48;0.52;;;3.30;99.90;;;;;;5065685;28;20091;-65
2021/01/09 10:08:19;;;;;;;3.58;0.80;;;3.30;99.90;;;;;;5061061;28;20045;-65
2021/01/09 10:11:06;;;;;;;2.33;0.70;;;3.30;99.90;;;;;;5063350;28;20119;-64
2021/01/09 10:13:41;;;;;;;0.98;0.57;;;3.40;99.90;;;;;;5072606;28;20048;-64
2021/01/09 10:20:29;;;;;;;2.75;1.10;;;3.50;99.90;;;;;;5063599;28;20035;-64
2021/01/09 10:23:00;;;;;;;1.65;0.70;;;3.50;99.90;;;;;;5058921;28;20041;-64
2021/01/09 10:25:32;;;;;;;2.08;0.93;;;3.50;99.90;;;;;;5069843;28;20040;-64
2021/01/09 10:27:59;;;;;;;4.25;1.00;;;3.60;99.90;;;;;;5034863;28;20048;-64
2021/01/09 10:30:31;;;;;;;2.15;0.70;;;3.50;99.90;;;;;;5036008;28;20095;-64
2021/01/09 10:33:05;;;;;;;2.17;0.77;;;3.50;99.90;;;;;;5060230;28;20426;-64
2021/01/09 10:35:32;;;;;;;4.05;1.13;;;3.60;99.90;;;;;;5048048;28;20044;-64
2021/01/09 10:37:59;;;;;;;2.83;0.73;;;3.60;99.90;;;;;;5075790;28;20040;-64
2021/01/09 10:40:33;;;;;;;5.35;1.90;;;3.60;99.90;;;;;;5067786;28;20045;-64
2021/01/09 10:43:00;;;;;;;3.13;1.00;;;3.60;99.90;;;;;;5056305;28;20044;-64
2021/01/09 10:45:34;;;;;;;4.13;0.98;;;3.60;99.90;;;;;;5035753;28;20077;-64
2021/01/09 10:48:15;;;;;;;2.10;0.60;;;3.60;99.90;;;;;;5072518;28;20123;-64
2021/01/09 10:50:46;;;;;;;2.40;1.48;;;3.60;99.90;;;;;;5068073;28;20048;-64
2021/01/09 10:53:24;;;;;;;2.83;1.15;;;3.60;99.90;;;;;;5037063;28;20048;-64
2021/01/09 10:56:15;;;;;;;1.88;0.70;;;3.60;99.90;;;;;;5054676;28;20084;-64
2021/01/09 11:02:59;;;;;;;1.95;0.90;;;3.70;99.90;;;;;;5075215;28;20071;-64
2021/01/09 11:05:31;;;;;;;3.97;1.10;;;3.80;99.90;;;;;;5060907;28;20041;-64
2021/01/09 11:07:59;;;;;;;2.15;0.70;;;3.80;99.90;;;;;;5073040;28;20437;-64
2021/01/09 11:10:31;;;;;;;2.38;0.70;;;3.80;99.90;;;;;;5054735;28;20041;-64
2021/01/09 11:13:03;;;;;;;3.90;0.82;;;3.80;99.90;;;;;;5055175;28;20048;-64
2021/01/09 11:15:29;;;;;;;2.08;0.70;;;3.80;99.90;;;;;;5067327;28;20044;-64
2021/01/09 11:18:01;;;;;;;2.75;0.90;;;3.80;99.90;;;;;;5075042;28;20067;-64
2021/01/09 11:20:52;;;;;;;2.13;0.75;;;3.80;99.90;;;;;;5062579;28;20044;-64
2021/01/09 11:23:31;;;;;;;1.15;0.70;;;3.80;99.90;;;;;;5070318;28;20177;-64
2021/01/09 11:26:02;;;;;;;1.88;0.85;;;3.80;99.90;;;;;;5062151;28;20056;-64
2021/01/09 11:28:43;;;;;;;2.10;1.00;;;3.80;99.90;;;;;;5066104;28;20041;-64
2021/01/09 11:31:11;;;;;;;2.92;1.63;;;3.70;99.90;;;;;;5070402;28;20041;-64
2021/01/09 11:33:37;;;;;;;3.05;1.50;;;3.70;99.90;;;;;;5059169;28;20090;-64
2021/01/09 11:36:03;;;;;;;5.15;1.63;;;3.70;99.90;;;;;;5075002;28;20516;-64
2021/01/09 11:39:18;;;;;;;6.30;2.10;;;3.70;99.90;;;;;;5067470;28;20480;-64
2021/01/09 11:45:29;;;;;;;2.50;1.13;;;3.70;99.90;;;;;;5034820;28;20041;-64
2021/01/09 11:48:05;;;;;;;3.28;1.52;;;3.80;99.90;;;;;;5058059;28;20041;-64
2021/01/09 11:50:38;;;;;;;2.65;1.20;;;3.80;99.90;;;;;;5063429;28;20036;-65
2021/01/09 11:53:09;;;;;;;4.38;1.50;;;3.80;99.90;;;;;;5059111;28;20544;-64
2021/01/09 11:55:42;;;;;;;6.55;2.17;;;3.90;99.90;;;;;;5052983;28;20501;-64
2021/01/09 11:58:27;;;;;;;6.85;1.98;;;4.00;99.90;;;;;;5069556;28;20036;-63
2021/01/09 12:05:29;;;;;;;1.63;0.90;;;4.00;99.90;;;;;;5060736;28;20060;-64
2021/01/09 12:08:32;;;;;;;1.30;0.80;;;4.10;99.90;;;;;;5054202;28;20393;-64
2021/01/09 12:15:34;;;;;;;1.98;0.80;;;4.20;99.90;;;;;;5061300;28;20495;-64
2021/01/09 12:18:05;;;;;;;1.80;0.60;;;4.20;99.90;;;;;;5054404;28;20045;-63
2021/01/09 12:20:36;;;;;;;1.75;1.02;;;4.20;99.90;;;;;;5033892;28;20041;-65
2021/01/09 12:23:07;;;;;;;2.40;0.80;;;4.20;99.90;;;;;;5058382;28;20397;-64
2021/01/09 12:25:35;;;;;;;2.72;0.70;;;4.30;99.90;;;;;;5044541;28;20045;-64
2021/01/09 12:28:02;;;;;;;2.67;0.50;;;4.40;99.90;;;;;;5053953;28;20041;-65
2021/01/09 12:30:29;;;;;;;1.77;0.52;;;4.50;99.90;;;;;;5067132;28;20119;-64
2021/01/09 12:33:02;;;;;;;2.42;0.80;;;4.50;99.90;;;;;;5070033;28;20106;-64
2021/01/09 12:35:31;;;;;;;4.05;1.17;;;4.50;99.90;;;;;;5068612;28;20040;-64
2021/01/09 12:37:59;;;;;;;1.92;0.50;;;4.60;99.90;;;;;;5073598;28;20071;-64
2021/01/09 12:40:31;;;;;;;1.75;0.55;;;4.60;99.90;;;;;;5060432;28;20053;-64
2021/01/09 12:43:31;;;;;;;1.98;0.75;;;4.60;99.90;;;;;;5053432;28;20428;-64
2021/01/09 12:46:11;;;;;;;1.23;0.70;;;4.60;99.90;;;;;;5038627;28;20048;-64
2021/01/09 12:48:42;;;;;;;2.30;0.90;;;4.70;99.90;;;;;;5056934;28;20045;-64
2021/01/09 12:51:10;;;;;;;2.00;0.65;;;4.80;99.90;;;;;;5063223;28;20054;-64
2021/01/09 12:53:41;;;;;;;3.72;0.82;;;4.70;99.90;;;;;;5068775;28;20040;-64
2021/01/09 13:01:01;;;;;;;3.33;0.80;;;4.70;99.90;;;;;;5054980;28;20146;-64
2021/01/09 13:03:30;;;;;;;1.67;0.73;;;4.70;99.90;;;;;;5040765;28;20388;-64
2021/01/09 13:10:30;;;;;;;2.30;0.77;;;4.60;99.90;;;;;;5059016;28;20035;-65
2021/01/09 13:13:12;;;;;;;1.23;0.68;;;4.60;99.90;;;;;;5053132;28;20041;-65
2021/01/09 13:16:02;;;;;;;2.47;0.85;;;4.60;99.90;;;;;;5034193;28;20044;-65
2021/01/09 13:18:34;;;;;;;4.13;0.93;;;4.60;99.90;;;;;;5038591;28;20075;-65
2021/01/09 13:28:31;;;;;;;1.80;0.80;;;4.80;99.90;;;;;;5073860;28;20040;-65
2021/01/09 13:31:32;;;;;;;0.90;0.70;;;4.80;99.90;;;;;;5040769;28;20116;-65
2021/01/09 13:37:59;;;;;;;0.90;0.57;;;4.80;99.90;;;;;;5070219;28;20059;-65
2021/01/09 13:40:33;;;;;;;1.90;0.70;;;4.90;99.90;;;;;;5067500;28;20041;-65
2021/01/09 13:43:00;;;;;;;2.50;0.85;;;4.90;99.90;;;;;;5073714;28;20101;-65
2021/01/09 13:45:29;;;;;;;5.07;1.30;;;4.90;99.90;;;;;;5058206;28;20060;-65
2021/01/09 13:48:01;;;;;;;4.47;0.82;;;4.90;99.90;;;;;;5064551;28;20044;-64
2021/01/09 13:51:03;;;;;;;2.72;0.63;;;4.90;99.90;;;;;;5076740;28;20040;-64
2021/01/09 13:53:35;;;;;;;1.70;0.68;;;4.90;99.90;;;;;;5067314;28;20040;-65
2021/01/09 13:56:13;;;;;;;1.55;0.70;;;5.00;99.90;;;;;;5064432;28;20056;-65
2021/01/09 13:58:41;;;;;;;1.25;0.50;;;4.90;99.90;;;;;;5042401;28;20033;-64
2021/01/09 14:01:12;;;;;;;3.95;1.13;;;4.90;99.90;;;;;;5056319;28;20052;-65
2021/01/09 14:03:38;;;;;;;5.57;1.40;;;4.90;99.90;;;;;;5060594;28;20102;-64
2021/01/09 14:10:00;;;;;;;4.10;1.15;;;4.90;99.90;;;;;;5066081;28;20078;-65
2021/01/09 14:13:04;;;;;;;3.20;1.20;;;4.90;99.90;;;;;;5072835;28;20127;-65
2021/01/09 14:15:36;;;;;;;1.88;0.73;;;4.90;99.90;;;;;;5036323;28;20041;-65
2021/01/09 14:18:04;;;;;;;1.75;0.75;;;4.90;99.90;;;;;;5056018;28;20459;-65
2021/01/09 14:20:35;;;;;;;3.33;1.08;;;5.00;99.90;;;;;;5074762;28;20047;-65
2021/01/09 14:23:41;;;;;;;2.97;1.38;;;5.00;99.90;;;;;;5070863;28;20051;-65
2021/01/09 14:30:32;;;;;;;3.53;1.45;;;5.00;99.90;;;;;;5067838;28;20112;-65
2021/01/09 14:33:05;;;;;;;6.10;1.63;;;5.00;99.90;;;;;;5036559;28;20037;-65
2021/01/09 14:35:31;;;;;;;6.23;1.73;;;5.00;99.90;;;;;;5036033;28;20049;-64
2021/01/09 14:38:09;;;;;;;6.13;1.88;;;5.00;99.90;;;;;;5074050;28;20638;-65
2021/01/09 14:48:18;;;;;;;6.25;2.28;;;4.90;99.90;;;;;;5064413;28;20035;-65
2021/01/09 14:51:11;;;;;;;4.20;1.80;;;4.90;99.90;;;;;;5037242;28;20041;-65
2021/01/09 14:53:43;;;;;;;4.80;1.23;;;5.00;99.90;;;;;;5045768;28;20041;-65
2021/01/09 15:00:32;;;;;;;4.10;1.20;;;5.00;99.90;;;;;;5055537;28;20036;-65
2021/01/09 15:03:07;;;;;;;2.42;1.10;;;5.00;99.90;;;;;;5036030;28;20054;-65
2021/01/09 15:09:20;;;;;;;1.65;0.85;;;4.90;99.90;;;;;;5051583;28;20487;-65
2021/01/09 15:15:35;;;;;;;3.13;1.05;;;4.80;99.90;;;;;;5074238;28;20043;-65
2021/01/09 15:18:34;;;;;;;;;;;;;;;;;;;;;
2021/01/09 15:25:36;;;;;;;2.47;0.93;;;4.60;99.90;;;;;;5067765;28;20517;-65
2021/01/09 15:28:08;;;;;;;2.53;1.20;;;4.50;99.90;;;;;;5034946;28;20126;-65
2021/01/09 15:30:35;;;;;;;5.63;1.83;;;4.40;99.90;;;;;;5035032;28;20037;-65
2021/01/09 15:33:06;;;;;;;5.75;1.88;;;4.30;99.90;;;;;;5035051;28;20072;-64
2021/01/09 15:35:38;;;;;;;6.25;2.60;;;4.30;99.90;;;;;;5034728;28;20046;-65
2021/01/09 15:38:05;;;;;;;8.85;3.22;;;4.30;99.90;;;;;;5066723;28;20393;-65
2021/01/09 15:40:36;;;;;;;9.35;2.92;;;4.20;99.90;;;;;;5053335;28;20040;-65
2021/01/09 15:50:36;;;;;;;8.95;3.22;;;4.00;99.90;;;;;;5036224;28;20032;-64
2021/01/09 15:53:08;;;;;;;11.70;4.38;;;4.00;99.90;;;;;;5066843;28;20460;-64
2021/01/09 15:55:36;;;;;;;13.43;4.68;;;3.90;99.90;;;;;;5074255;28;20056;-64
2021/01/09 15:58:05;;;;;;;10.52;4.07;;;3.90;99.90;;;;;;5058662;28;20124;-64
2021/01/09 16:00:37;;;;;;;10.18;4.32;;;3.80;99.90;;;;;;5060013;28;20044;-64
2021/01/09 16:03:05;;;;;;;8.13;3.55;;;3.70;99.90;;;;;;5034341;28;20056;-65
2021/01/09 16:05:40;;;;;;;8.10;3.35;;;3.60;99.90;;;;;;5050640;28;20485;-64
2021/01/09 16:08:12;;;;;;;5.68;2.60;;;3.60;99.90;;;;;;5069427;28;20097;-64
2021/01/09 16:18:09;;;;;;;4.38;1.98;;;3.40;99.90;;;;;;5068164;28;20035;-64
2021/01/09 16:20:41;;;;;;;4.55;1.77;;;3.40;99.90;;;;;;5074463;28;20040;-64
2021/01/09 16:23:10;;;;;;;4.90;2.00;;;3.30;99.90;;;;;;5065703;28;20173;-64
2021/01/09 16:25:38;;;;;;;7.15;2.25;;;3.30;99.90;;;;;;5074323;28;20037;-64
2021/01/09 16:28:10;;;;;;;6.85;3.17;;;3.20;99.90;;;;;;5073820;28;20477;-64
2021/01/09 16:30:43;;;;;;;7.28;3.58;;;3.20;99.90;;;;;;5033824;28;20042;-64
2021/01/09 16:33:18;;;;;;;8.82;4.03;;;3.20;99.90;;;;;;5062676;28;20049;-64
2021/01/09 16:39:37;;;;;;;9.43;3.40;;;3.10;99.90;;;;;;5070314;28;20043;-64
2021/01/09 16:45:54;;;;;;;8.30;4.32;;;3.00;99.90;;;;;;5033598;28;20045;-64
2021/01/09 16:48:26;;;;;;;10.50;4.32;;;2.90;99.90;;;;;;5067693;28;20119;-64
2021/01/09 16:59:10;;;;;;;9.60;3.80;;;2.90;99.90;;;;;;5034288;28;20057;-64
2021/01/09 17:05:54;;;;;;;6.97;3.33;;;3.10;99.90;;;;;;5050306;28;20048;-64
2021/01/09 17:15:38;;;;;;;7.25;3.00;;;3.30;99.90;;;;;;5054019;28;20044;-64
2021/01/09 17:18:11;;;;;;;9.30;4.18;;;3.30;99.90;;;;;;5033260;28;20072;-64
2021/01/09 17:20:45;;;;;;;7.75;5.32;;;3.40;99.90;;;;;;5033257;28;20099;-64
2021/01/09 17:23:13;;;;;;;9.35;4.63;;;3.40;99.90;;;;;;5065085;28;20101;-64
2021/01/09 17:26:08;;;;;;;10.95;4.53;;;3.40;99.90;;;;;;5072959;28;20563;-64
2021/01/09 17:28:34;;;;;;;8.20;3.97;;;3.40;99.90;;;;;;5053350;28;20048;-64
2021/01/09 17:31:12;;;;;;;5.90;3.50;;;3.40;99.90;;;;;;5056815;28;20041;-64
2021/01/09 17:33:43;;;;;;;6.75;2.88;;;3.50;99.90;;;;;;5036520;28;20041;-64
2021/01/09 17:36:09;;;;;;;5.95;3.13;;;3.50;99.90;;;;;;5067696;28;20037;-64
2021/01/09 17:38:41;;;;;;;8.02;3.15;;;3.50;99.90;;;;;;5040327;28;20096;-64
2021/01/09 17:41:12;;;;;;;5.70;2.72;;;3.60;99.90;;;;;;5069179;28;20068;-64
2021/01/09 17:50:42;;;;;;;8.02;3.13;;;3.60;99.90;;;;;;5032941;28;20041;-64
2021/01/09 17:53:14;;;;;;;6.03;3.47;;;3.60;99.90;;;;;;5032985;28;20048;-64
2021/01/09 17:55:41;;;;;;;5.95;2.92;;;3.70;99.90;;;;;;5032990;28;20420;-64
2021/01/09 17:58:14;;;;;;;5.40;3.05;;;3.70;99.90;;;;;;5071999;28;20122;-64
2021/01/09 18:08:07;;;;;;;6.97;2.80;;;3.70;99.90;;;;;;5051836;28;20055;-64
2021/01/09 18:11:07;;;;;;;5.70;3.03;;;3.70;99.90;;;;;;5061989;28;20044;-64
2021/01/09 18:13:39;;;;;;;7.45;2.72;;;3.70;99.90;;;;;;5039920;28;20037;-64
2021/01/09 18:20:38;;;;;;;5.38;2.67;;;3.60;99.90;;;;;;5048841;28;20059;-64
2021/01/09 18:23:28;;;;;;;6.22;3.20;;;3.60;99.90;;;;;;5065691;28;20438;-64
2021/01/09 18:33:14;;;;;;;6.50;3.30;;;3.50;99.90;;;;;;5072633;28;20071;-64
2021/01/09 18:35:46;;;;;;;6.50;3.65;;;3.50;99.90;;;;;;5061484;28;20073;-64
2021/01/09 18:38:13;;;;;;;7.03;4.32;;;3.50;99.90;;;;;;5062683;28;20481;-64
2021/01/09 18:40:45;;;;;;;8.18;3.83;;;3.40;99.90;;;;;;5058102;28;20083;-64